| time (UTC) | temp F | wind direction | speed MPH | gust MPH | rain 1hr in | rain 24hr in | rain mn in | humidity % | barometer mb |
| 20260508204556 | 44 | 10 | 3.0 | 9.0 | 0.00 | 0.40 | 0.00 | 90 | 1002.0 |
| 20260508203058 | 43 | 345 | 5.0 | 10.0 | 0.00 | 0.40 | 0.00 | 90 | 1001.8 |
| 20260508201555 | 44 | 307 | 5.0 | 8.0 | 0.00 | 0.40 | 0.00 | 89 | 1001.7 |
| 20260508200105 | 44 | 303 | 3.0 | 10.0 | 0.00 | 0.40 | 0.00 | 89 | 1001.4 |
| 20260508194601 | 44 | 329 | 6.0 | 10.0 | 0.00 | 0.56 | 0.00 | 89 | 1001.4 |
| 20260508193056 | 44 | 350 | 6.0 | 11.0 | 0.00 | 0.56 | 0.00 | 90 | 1001.2 |
| 20260508191556 | 44 | 332 | 4.0 | 11.0 | 0.00 | 0.56 | 0.00 | 90 | 1001.3 |
| 20260508190052 | 44 | 345 | 6.0 | 11.0 | 0.00 | 0.56 | 0.00 | 89 | 1001.0 |
| 20260508184553 | 44 | 338 | 8.0 | 14.0 | 0.00 | 0.61 | 0.00 | 89 | 1000.9 |
| 20260508183050 | 45 | 336 | 4.0 | 10.0 | 0.00 | 0.61 | 0.00 | 89 | 1001.2 |
| 20260508181551 | 45 | 15 | 5.0 | 10.0 | 0.00 | 0.61 | 0.00 | 91 | 1001.5 |
| 20260508180049 | 45 | 317 | 7.0 | 12.0 | 0.00 | 0.61 | 0.00 | 91 | 1001.7 |
| 20260508174558 | 45 | 344 | 5.0 | 11.0 | 0.00 | 0.61 | 0.00 | 92 | 1001.6 |
| 20260508173047 | 45 | 318 | 6.0 | 12.0 | 0.00 | 0.61 | 0.00 | 93 | 1001.6 |
| 20260508171546 | 43 | 309 | 5.0 | 10.0 | 0.00 | 0.61 | 0.00 | 94 | 1001.6 |
| 20260508170050 | 43 | 332 | 7.0 | 10.0 | 0.00 | 0.61 | 0.00 | 93 | 1002.0 |
| 20260508164546 | 43 | 341 | 3.0 | 6.0 | 0.00 | 0.61 | 0.00 | 93 | 1001.7 |
| 20260508163043 | 43 | 344 | 4.0 | 8.0 | 0.00 | 0.61 | 0.00 | 93 | 1001.7 |
| 20260508161547 | 43 | 313 | 3.0 | 6.0 | 0.00 | 0.61 | 0.00 | 93 | 1001.8 |
| 20260508160049 | 43 | 324 | 4.0 | 10.0 | 0.00 | 0.61 | 0.00 | 92 | 1001.6 |
| 20260508154547 | 43 | 340 | 6.0 | 13.0 | 0.00 | 0.61 | 0.00 | 93 | 1001.5 |
| 20260508153041 | 43 | 347 | 4.0 | 9.0 | 0.00 | 0.61 | 0.00 | 93 | 1002.0 |
| 20260508151540 | 43 | 308 | 5.0 | 10.0 | 0.00 | 0.61 | 0.00 | 93 | 1001.7 |
| 20260508150040 | 44 | 1 | 6.0 | 13.0 | 0.00 | 0.61 | 0.00 | 94 | 1001.6 |
| 20260508144639 | 43 | 302 | 5.0 | 11.0 | 0.00 | 0.61 | 0.00 | 95 | 1001.9 |
| 20260508143049 | 43 | 354 | 5.0 | 11.0 | 0.00 | 0.61 | 0.00 | 95 | 1001.9 |
| 20260508141537 | 43 | 301 | 5.0 | 11.0 | 0.00 | 0.61 | 0.00 | 96 | 1002.3 |
| 20260508140039 | 42 | 324 | 8.0 | 13.0 | 0.00 | 0.61 | 0.00 | 97 | 1002.2 |
| 20260508134540 | 43 | 338 | 6.0 | 10.0 | 0.00 | 0.61 | 0.00 | 98 | 1002.4 |
| 20260508133036 | 42 | 334 | 8.0 | 13.0 | 0.00 | 0.61 | 0.00 | 98 | 1002.4 |
| 20260508131538 | 42 | 324 | 6.0 | 10.0 | 0.00 | 0.61 | 0.00 | 99 | 1002.2 |
| 20260508130046 | 42 | 317 | 5.0 | 11.0 | 0.00 | 0.61 | 0.00 | 99 | 1002.2 |
| 20260508124536 | 41 | 344 | 6.0 | 11.0 | 0.00 | 0.61 | 0.00 | 99 | 1002.1 |
| 20260508123037 | 42 | 344 | 5.0 | 13.0 | 0.00 | 0.61 | 0.00 | 99 | 1001.9 |
| 20260508121530 | 42 | 330 | 7.0 | 13.0 | 0.00 | 0.61 | 0.00 | 99 | 1002.4 |
| 20260508120029 | 41 | 330 | 6.0 | 11.0 | 0.00 | 0.61 | 0.00 | 99 | 1002.3 |
| 20260508114528 | 41 | 344 | 6.0 | 9.0 | 0.00 | 0.61 | 0.00 | 99 | 1002.2 |
| 20260508113027 | 41 | 340 | 6.0 | 10.0 | 0.00 | 0.61 | 0.00 | 100 | 1002.1 |
| 20260508111525 | 40 | 324 | 3.0 | 8.0 | 0.00 | 0.61 | 0.00 | 99 | 1002.1 |
| 20260508110027 | 40 | 339 | 2.0 | 8.0 | 0.00 | 0.61 | 0.00 | 100 | 1002.2 |
| 20260508104526 | 40 | 352 | 3.0 | 6.0 | 0.00 | 0.61 | 0.00 | 99 | 1002.7 |
| 20260508103021 | 40 | 353 | 2.0 | 4.0 | 0.00 | 0.61 | 0.00 | 99 | 1002.5 |
| 20260508101522 | 39 | 355 | 0.0 | 2.0 | 0.00 | 0.61 | 0.00 | 99 | 1002.4 |
| 20260508100014 | 39 | 355 | 1.0 | 5.0 | 0.00 | 0.61 | 0.00 | 99 | 1002.3 |
| 20260508094526 | 39 | 3 | 0.0 | 3.0 | 0.00 | 0.61 | 0.00 | 99 | 1001.8 |
| 20260508093012 | 39 | 3 | 1.0 | 3.0 | 0.00 | 0.61 | 0.00 | 99 | 1002.2 |
| 20260508091507 | 39 | 3 | 2.0 | 5.0 | 0.00 | 0.61 | 0.00 | 99 | 1002.2 |
| 20260508090004 | 39 | 1 | 1.0 | 6.0 | 0.00 | 0.61 | 0.00 | 99 | 1001.9 |
| 20260508084502 | 39 | 351 | 1.0 | 3.0 | 0.00 | 0.61 | 0.00 | 99 | 1001.9 |
| 20260508083100 | 39 | 348 | 0.0 | 2.0 | 0.00 | 0.61 | 0.00 | 99 | 1001.8 |
| 20260508081611 | 39 | 347 | 1.0 | 3.0 | 0.00 | 0.61 | 0.00 | 99 | 1001.7 |
| 20260508080058 | 39 | 349 | 1.0 | 4.0 | 0.00 | 0.61 | 0.00 | 99 | 1001.4 |
| 20260508074557 | 40 | 346 | 2.0 | 5.0 | 0.00 | 0.61 | 0.00 | 99 | 1001.5 |
| 20260508073106 | 40 | 359 | 2.0 | 5.0 | 0.00 | 0.61 | 0.00 | 99 | 1001.6 |
| 20260508071612 | 40 | 351 | 0.0 | 4.0 | 0.00 | 0.61 | 0.00 | 99 | 1001.7 |
| 20260508070059 | 41 | 15 | 2.0 | 6.0 | 0.00 | 0.61 | 0.00 | 99 | 1001.5 |
| 20260508064547 | 42 | 336 | 2.0 | 8.0 | 0.00 | 0.61 | 0.00 | 99 | 1001.5 |
| 20260508063045 | 42 | 336 | 2.0 | 5.0 | 0.00 | 0.61 | 0.00 | 99 | 1001.7 |
| 20260508061545 | 42 | 332 | 2.0 | 4.0 | 0.00 | 0.61 | 0.00 | 99 | 1001.5 |
| 20260508060044 | 43 | 352 | 2.0 | 4.0 | 0.00 | 0.61 | 0.00 | 99 | 1001.4 |
| 20260508054545 | 44 | 352 | 2.0 | 4.0 | 0.00 | 0.61 | 0.00 | 99 | 1001.2 |
| 20260508053041 | 44 | 352 | 0.0 | 0.0 | 0.00 | 0.61 | 0.00 | 99 | 1001.1 |
| 20260508051540 | 45 | 352 | 0.0 | 0.0 | 0.00 | 0.61 | 0.00 | 99 | 1001.1 |
| 20260508050032 | 46 | 352 | 1.0 | 4.0 | 0.00 | 0.61 | 0.00 | 99 | 1001.1 |
| 20260508044527 | 47 | 350 | 2.0 | 6.0 | 0.00 | 0.61 | 0.00 | 99 | 1001.3 |
| 20260508043025 | 48 | 286 | 2.0 | 7.0 | 0.00 | 0.61 | 0.00 | 100 | 1001.4 |
| 20260508041522 | 47 | 207 | 0.0 | 0.0 | 0.00 | 0.61 | 0.00 | 100 | 1001.6 |
| 20260508040028 | 47 | 207 | 0.0 | 0.0 | 0.00 | 0.61 | 0.00 | 100 | 1001.7 |
| 20260508034520 | 47 | 207 | 0.0 | 0.0 | 0.00 | 0.61 | 0.00 | 100 | 1001.7 |
| 20260508033016 | 47 | 207 | 0.0 | 0.0 | 0.00 | 0.61 | 0.00 | 99 | 1001.7 |
| 20260508031516 | 47 | 207 | 0.0 | 3.0 | 0.00 | 0.61 | 0.00 | 99 | 1001.6 |
| 20260508030022 | 47 | 207 | 0.0 | 0.0 | 0.00 | 0.61 | 0.00 | 99 | 1001.7 |
| 20260508024516 | 46 | 211 | 0.0 | 5.0 | 0.00 | 0.61 | 0.61 | 99 | 1001.5 |
| 20260508023010 | 46 | 188 | 1.0 | 4.0 | 0.00 | 0.61 | 0.61 | 99 | 1001.4 |
| 20260508021550 | 46 | 199 | 2.0 | 5.0 | 0.00 | 0.61 | 0.61 | 99 | 1001.4 |
| 20260508020104 | 46 | 178 | 2.0 | 9.0 | 0.00 | 0.61 | 0.61 | 99 | 1001.7 |
| 20260508014556 | 46 | 206 | 4.0 | 7.0 | 0.00 | 0.61 | 0.61 | 99 | 1001.5 |
| 20260508013059 | 46 | 209 | 3.0 | 8.0 | 0.00 | 0.61 | 0.61 | 99 | 1001.3 |
| 20260508011547 | 47 | 193 | 4.0 | 9.0 | 0.00 | 0.61 | 0.61 | 99 | 1001.6 |
| 20260508010045 | 47 | 174 | 3.0 | 10.0 | 0.00 | 0.61 | 0.61 | 99 | 1002.0 |
| 20260508004544 | 47 | 177 | 5.0 | 11.0 | 0.00 | 0.61 | 0.61 | 99 | 1001.9 |
| 20260508003045 | 47 | 168 | 4.0 | 9.0 | 0.00 | 0.61 | 0.61 | 99 | 1001.8 |
| 20260508001551 | 48 | 216 | 6.0 | 9.0 | 0.00 | 0.61 | 0.61 | 99 | 1001.8 |
| 20260508000042 | 47 | 188 | 4.0 | 9.0 | 0.00 | 0.61 | 0.61 | 99 | 1002.2 |
| 20260507234542 | 47 | 193 | 4.0 | 14.0 | 0.00 | 0.61 | 0.61 | 99 | 1002.2 |
| 20260507233042 | 47 | 190 | 5.0 | 9.0 | 0.01 | 0.61 | 0.61 | 99 | 1002.5 |
| 20260507231540 | 47 | 182 | 8.0 | 15.0 | 0.01 | 0.61 | 0.61 | 99 | 1002.4 |
| 20260507230040 | 47 | 163 | 7.0 | 20.0 | 0.01 | 0.61 | 0.61 | 99 | 1002.4 |
| 20260507224540 | 48 | 145 | 10.0 | 17.0 | 0.01 | 0.61 | 0.61 | 98 | 1002.7 |
| 20260507223039 | 47 | 158 | 11.0 | 19.0 | 0.00 | 0.61 | 0.61 | 99 | 1002.3 |
| 20260507221538 | 47 | 187 | 8.0 | 14.0 | 0.02 | 0.61 | 0.61 | 98 | 1002.9 |
| 20260507220038 | 47 | 150 | 9.0 | 18.0 | 0.06 | 0.61 | 0.61 | 98 | 1002.2 |
| 20260507214539 | 47 | 153 | 11.0 | 21.0 | 0.17 | 0.61 | 0.61 | 98 | 1002.2 |
| 20260507213042 | 47 | 137 | 12.0 | 18.0 | 0.24 | 0.61 | 0.61 | 98 | 1002.6 |
| 20260507211543 | 48 | 170 | 12.0 | 21.0 | 0.28 | 0.57 | 0.57 | 98 | 1003.2 |
| 20260507210029 | 48 | 181 | 12.0 | 26.0 | 0.32 | 0.54 | 0.54 | 98 | 1003.4 |